sensor_id;sensor_type;location;lat;lon;timestamp;P1;durP1;ratioP1;P2;durP2;ratioP2
9140;SDS011;46330;50.822;7.126;2022-12-15T00:02:04;49.30;;;21.20;;
9140;SDS011;46330;50.822;7.126;2022-12-15T00:04:50;37.67;;;17.92;;
9140;SDS011;46330;50.822;7.126;2022-12-15T00:10:20;33.03;;;17.63;;
9140;SDS011;46330;50.822;7.126;2022-12-15T00:13:08;30.42;;;15.63;;
9140;SDS011;46330;50.822;7.126;2022-12-15T00:15:55;26.52;;;15.38;;
9140;SDS011;46330;50.822;7.126;2022-12-15T00:18:42;37.45;;;17.83;;
9140;SDS011;46330;50.822;7.126;2022-12-15T00:21:27;32.70;;;16.73;;
9140;SDS011;46330;50.822;7.126;2022-12-15T00:26:58;24.13;;;14.05;;
9140;SDS011;46330;50.822;7.126;2022-12-15T00:32:29;28.27;;;15.57;;
9140;SDS011;46330;50.822;7.126;2022-12-15T00:35:16;28.35;;;14.98;;
9140;SDS011;46330;50.822;7.126;2022-12-15T00:38:05;29.23;;;15.30;;
9140;SDS011;46330;50.822;7.126;2022-12-15T00:40:51;27.08;;;14.80;;
9140;SDS011;46330;50.822;7.126;2022-12-15T00:43:24;29.23;;;15.20;;
9140;SDS011;46330;50.822;7.126;2022-12-15T00:45:52;26.10;;;15.02;;
9140;SDS011;46330;50.822;7.126;2022-12-15T00:48:38;26.92;;;15.13;;
9140;SDS011;46330;50.822;7.126;2022-12-15T00:51:07;32.90;;;16.67;;
9140;SDS011;46330;50.822;7.126;2022-12-15T00:53:34;33.85;;;16.45;;
9140;SDS011;46330;50.822;7.126;2022-12-15T00:56:19;34.22;;;16.70;;
9140;SDS011;46330;50.822;7.126;2022-12-15T00:59:05;34.55;;;17.50;;
9140;SDS011;46330;50.822;7.126;2022-12-15T01:01:51;33.90;;;17.48;;
9140;SDS011;46330;50.822;7.126;2022-12-15T01:04:36;32.05;;;15.65;;
9140;SDS011;46330;50.822;7.126;2022-12-15T01:07:23;30.98;;;16.05;;
9140;SDS011;46330;50.822;7.126;2022-12-15T01:10:08;28.80;;;15.73;;
9140;SDS011;46330;50.822;7.126;2022-12-15T01:12:53;32.05;;;15.32;;
9140;SDS011;46330;50.822;7.126;2022-12-15T01:15:39;30.23;;;14.70;;
9140;SDS011;46330;50.822;7.126;2022-12-15T01:18:25;32.28;;;14.45;;
9140;SDS011;46330;50.822;7.126;2022-12-15T01:21:14;30.63;;;15.25;;
9140;SDS011;46330;50.822;7.126;2022-12-15T01:23:44;29.55;;;14.77;;
9140;SDS011;46330;50.822;7.126;2022-12-15T01:26:11;35.17;;;16.52;;
9140;SDS011;46330;50.822;7.126;2022-12-15T01:28:39;36.55;;;16.17;;
9140;SDS011;46330;50.822;7.126;2022-12-15T01:31:08;33.88;;;15.88;;
9140;SDS011;46330;50.822;7.126;2022-12-15T01:33:38;31.10;;;16.60;;
9140;SDS011;46330;50.822;7.126;2022-12-15T01:36:08;33.38;;;15.57;;
9140;SDS011;46330;50.822;7.126;2022-12-15T01:38:36;31.33;;;13.93;;
9140;SDS011;46330;50.822;7.126;2022-12-15T01:41:06;31.00;;;15.02;;
9140;SDS011;46330;50.822;7.126;2022-12-15T01:43:36;31.50;;;14.80;;
9140;SDS011;46330;50.822;7.126;2022-12-15T01:46:06;29.50;;;15.27;;
9140;SDS011;46330;50.822;7.126;2022-12-15T01:48:43;31.08;;;14.80;;
9140;SDS011;46330;50.822;7.126;2022-12-15T01:51:17;28.02;;;15.02;;
9140;SDS011;46330;50.822;7.126;2022-12-15T01:53:51;31.40;;;14.43;;
9140;SDS011;46330;50.822;7.126;2022-12-15T01:56:24;30.23;;;14.68;;
9140;SDS011;46330;50.822;7.126;2022-12-15T01:58:59;27.95;;;14.80;;
9140;SDS011;46330;50.822;7.126;2022-12-15T02:01:29;28.58;;;15.52;;
9140;SDS011;46330;50.822;7.126;2022-12-15T02:03:57;29.67;;;14.98;;
9140;SDS011;46330;50.822;7.126;2022-12-15T02:06:25;28.00;;;14.32;;
9140;SDS011;46330;50.822;7.126;2022-12-15T02:08:57;26.00;;;13.23;;
9140;SDS011;46330;50.822;7.126;2022-12-15T02:14:22;29.83;;;15.15;;
9140;SDS011;46330;50.822;7.126;2022-12-15T02:17:01;29.85;;;15.63;;
9140;SDS011;46330;50.822;7.126;2022-12-15T02:19:58;33.33;;;16.00;;
9140;SDS011;46330;50.822;7.126;2022-12-15T02:22:59;29.02;;;15.38;;
9140;SDS011;46330;50.822;7.126;2022-12-15T02:25:52;30.35;;;15.88;;
9140;SDS011;46330;50.822;7.126;2022-12-15T02:28:37;29.73;;;14.38;;
9140;SDS011;46330;50.822;7.126;2022-12-15T02:31:20;29.73;;;15.43;;
9140;SDS011;46330;50.822;7.126;2022-12-15T02:34:17;29.45;;;13.30;;
9140;SDS011;46330;50.822;7.126;2022-12-15T02:36:53;27.95;;;14.48;;
9140;SDS011;46330;50.822;7.126;2022-12-15T02:39:24;27.77;;;14.80;;
9140;SDS011;46330;50.822;7.126;2022-12-15T02:41:52;26.30;;;13.95;;
9140;SDS011;46330;50.822;7.126;2022-12-15T02:44:20;30.02;;;15.90;;
9140;SDS011;46330;50.822;7.126;2022-12-15T02:47:09;29.50;;;13.98;;
9140;SDS011;46330;50.822;7.126;2022-12-15T02:49:48;28.27;;;14.25;;
9140;SDS011;46330;50.822;7.126;2022-12-15T02:52:32;26.63;;;13.55;;
9140;SDS011;46330;50.822;7.126;2022-12-15T02:55:14;27.42;;;13.15;;
9140;SDS011;46330;50.822;7.126;2022-12-15T03:01:58;21.67;;;11.23;;
9140;SDS011;46330;50.822;7.126;2022-12-15T03:04:32;23.33;;;12.35;;
9140;SDS011;46330;50.822;7.126;2022-12-15T03:07:01;25.20;;;12.13;;
9140;SDS011;46330;50.822;7.126;2022-12-15T03:09:30;25.10;;;12.35;;
9140;SDS011;46330;50.822;7.126;2022-12-15T03:11:58;26.00;;;13.15;;
9140;SDS011;46330;50.822;7.126;2022-12-15T03:14:26;24.25;;;12.00;;
9140;SDS011;46330;50.822;7.126;2022-12-15T03:16:54;22.67;;;11.95;;
9140;SDS011;46330;50.822;7.126;2022-12-15T03:19:22;25.30;;;11.32;;
9140;SDS011;46330;50.822;7.126;2022-12-15T03:21:52;25.50;;;12.93;;
9140;SDS011;46330;50.822;7.126;2022-12-15T03:24:20;26.67;;;12.73;;
9140;SDS011;46330;50.822;7.126;2022-12-15T03:26:47;27.33;;;13.85;;
9140;SDS011;46330;50.822;7.126;2022-12-15T03:29:16;22.58;;;12.32;;
9140;SDS011;46330;50.822;7.126;2022-12-15T03:31:44;23.48;;;12.75;;
9140;SDS011;46330;50.822;7.126;2022-12-15T03:34:15;27.90;;;13.13;;
9140;SDS011;46330;50.822;7.126;2022-12-15T03:36:43;23.55;;;12.70;;
9140;SDS011;46330;50.822;7.126;2022-12-15T03:39:12;26.42;;;13.10;;
9140;SDS011;46330;50.822;7.126;2022-12-15T03:41:40;24.67;;;13.10;;
9140;SDS011;46330;50.822;7.126;2022-12-15T03:44:09;26.90;;;13.93;;
9140;SDS011;46330;50.822;7.126;2022-12-15T03:46:37;28.05;;;13.02;;
9140;SDS011;46330;50.822;7.126;2022-12-15T03:49:05;23.27;;;13.60;;
9140;SDS011;46330;50.822;7.126;2022-12-15T03:51:33;24.38;;;13.55;;
9140;SDS011;46330;50.822;7.126;2022-12-15T03:54:00;25.52;;;12.57;;
9140;SDS011;46330;50.822;7.126;2022-12-15T03:56:29;26.23;;;12.63;;
9140;SDS011;46330;50.822;7.126;2022-12-15T03:58:57;25.98;;;12.93;;
9140;SDS011;46330;50.822;7.126;2022-12-15T04:01:26;28.73;;;12.73;;
9140;SDS011;46330;50.822;7.126;2022-12-15T04:03:56;20.13;;;11.98;;
9140;SDS011;46330;50.822;7.126;2022-12-15T04:06:27;28.10;;;12.63;;
9140;SDS011;46330;50.822;7.126;2022-12-15T04:08:55;24.48;;;12.73;;
9140;SDS011;46330;50.822;7.126;2022-12-15T04:11:23;28.17;;;13.73;;
9140;SDS011;46330;50.822;7.126;2022-12-15T04:13:52;24.67;;;12.85;;
9140;SDS011;46330;50.822;7.126;2022-12-15T04:16:20;27.15;;;13.13;;
9140;SDS011;46330;50.822;7.126;2022-12-15T04:18:47;23.73;;;12.82;;
9140;SDS011;46330;50.822;7.126;2022-12-15T04:21:36;22.52;;;12.10;;
9140;SDS011;46330;50.822;7.126;2022-12-15T04:24:03;23.95;;;12.23;;
9140;SDS011;46330;50.822;7.126;2022-12-15T04:26:49;20.70;;;11.43;;
9140;SDS011;46330;50.822;7.126;2022-12-15T04:29:36;21.83;;;12.02;;
9140;SDS011;46330;50.822;7.126;2022-12-15T04:32:21;24.92;;;11.55;;
9140;SDS011;46330;50.822;7.126;2022-12-15T04:35:07;23.60;;;12.27;;
9140;SDS011;46330;50.822;7.126;2022-12-15T04:37:54;22.58;;;11.50;;
9140;SDS011;46330;50.822;7.126;2022-12-15T04:43:25;19.75;;;11.25;;
9140;SDS011;46330;50.822;7.126;2022-12-15T04:46:11;24.00;;;11.40;;
9140;SDS011;46330;50.822;7.126;2022-12-15T04:48:57;22.70;;;11.57;;
9140;SDS011;46330;50.822;7.126;2022-12-15T04:51:42;22.92;;;12.18;;
9140;SDS011;46330;50.822;7.126;2022-12-15T05:02:44;16.77;;;9.20;;
9140;SDS011;46330;50.822;7.126;2022-12-15T05:05:29;24.52;;;11.85;;
9140;SDS011;46330;50.822;7.126;2022-12-15T05:08:14;21.45;;;10.80;;
9140;SDS011;46330;50.822;7.126;2022-12-15T05:10:59;20.92;;;12.15;;
9140;SDS011;46330;50.822;7.126;2022-12-15T05:13:45;23.05;;;11.77;;
9140;SDS011;46330;50.822;7.126;2022-12-15T05:16:30;20.92;;;11.93;;
9140;SDS011;46330;50.822;7.126;2022-12-15T05:19:16;22.30;;;11.30;;
9140;SDS011;46330;50.822;7.126;2022-12-15T05:22:02;22.40;;;11.73;;
9140;SDS011;46330;50.822;7.126;2022-12-15T05:24:47;26.42;;;14.63;;
9140;SDS011;46330;50.822;7.126;2022-12-15T05:27:32;28.08;;;13.13;;
9140;SDS011;46330;50.822;7.126;2022-12-15T05:33:03;41.38;;;18.63;;
9140;SDS011;46330;50.822;7.126;2022-12-15T05:35:32;43.42;;;18.38;;
9140;SDS011;46330;50.822;7.126;2022-12-15T05:38:00;42.85;;;19.02;;
9140;SDS011;46330;50.822;7.126;2022-12-15T05:40:28;40.22;;;18.35;;
9140;SDS011;46330;50.822;7.126;2022-12-15T05:42:56;29.35;;;15.23;;
9140;SDS011;46330;50.822;7.126;2022-12-15T05:45:24;29.92;;;15.00;;
9140;SDS011;46330;50.822;7.126;2022-12-15T05:47:52;28.63;;;14.30;;
9140;SDS011;46330;50.822;7.126;2022-12-15T05:50:21;45.72;;;20.63;;
9140;SDS011;46330;50.822;7.126;2022-12-15T05:52:50;33.65;;;16.10;;
9140;SDS011;46330;50.822;7.126;2022-12-15T05:55:19;29.35;;;14.05;;
9140;SDS011;46330;50.822;7.126;2022-12-15T05:57:49;23.15;;;11.45;;
9140;SDS011;46330;50.822;7.126;2022-12-15T06:00:18;26.73;;;13.68;;
9140;SDS011;46330;50.822;7.126;2022-12-15T06:02:46;36.75;;;16.45;;
9140;SDS011;46330;50.822;7.126;2022-12-15T06:05:15;25.90;;;13.05;;
9140;SDS011;46330;50.822;7.126;2022-12-15T06:07:43;29.95;;;14.25;;
9140;SDS011;46330;50.822;7.126;2022-12-15T06:10:12;28.98;;;16.00;;
9140;SDS011;46330;50.822;7.126;2022-12-15T06:12:40;30.40;;;16.20;;
9140;SDS011;46330;50.822;7.126;2022-12-15T06:15:08;49.33;;;23.60;;
9140;SDS011;46330;50.822;7.126;2022-12-15T06:17:36;33.58;;;15.98;;
9140;SDS011;46330;50.822;7.126;2022-12-15T06:20:04;25.42;;;13.02;;
9140;SDS011;46330;50.822;7.126;2022-12-15T06:22:33;24.58;;;12.55;;
9140;SDS011;46330;50.822;7.126;2022-12-15T06:25:01;25.52;;;12.40;;
9140;SDS011;46330;50.822;7.126;2022-12-15T06:27:30;25.95;;;13.23;;
9140;SDS011;46330;50.822;7.126;2022-12-15T06:29:58;28.88;;;13.60;;
9140;SDS011;46330;50.822;7.126;2022-12-15T06:32:26;25.38;;;12.70;;
9140;SDS011;46330;50.822;7.126;2022-12-15T06:34:54;22.92;;;13.55;;
9140;SDS011;46330;50.822;7.126;2022-12-15T06:37:22;40.30;;;19.00;;
9140;SDS011;46330;50.822;7.126;2022-12-15T06:39:50;32.42;;;15.93;;
9140;SDS011;46330;50.822;7.126;2022-12-15T06:42:18;45.25;;;20.20;;
9140;SDS011;46330;50.822;7.126;2022-12-15T06:44:48;35.83;;;18.52;;
9140;SDS011;46330;50.822;7.126;2022-12-15T06:47:16;34.92;;;14.80;;
9140;SDS011;46330;50.822;7.126;2022-12-15T06:49:44;30.20;;;15.75;;
9140;SDS011;46330;50.822;7.126;2022-12-15T06:52:12;26.40;;;13.52;;
9140;SDS011;46330;50.822;7.126;2022-12-15T06:54:39;31.13;;;13.43;;
9140;SDS011;46330;50.822;7.126;2022-12-15T06:57:07;34.95;;;15.93;;
9140;SDS011;46330;50.822;7.126;2022-12-15T06:59:35;27.17;;;13.73;;
9140;SDS011;46330;50.822;7.126;2022-12-15T07:02:05;33.90;;;15.90;;
9140;SDS011;46330;50.822;7.126;2022-12-15T07:04:42;37.78;;;16.52;;
9140;SDS011;46330;50.822;7.126;2022-12-15T07:07:09;35.72;;;15.75;;
9140;SDS011;46330;50.822;7.126;2022-12-15T07:09:37;30.75;;;15.18;;
9140;SDS011;46330;50.822;7.126;2022-12-15T07:12:05;28.85;;;14.25;;
9140;SDS011;46330;50.822;7.126;2022-12-15T07:14:33;27.58;;;15.07;;
9140;SDS011;46330;50.822;7.126;2022-12-15T07:17:01;25.77;;;13.68;;
9140;SDS011;46330;50.822;7.126;2022-12-15T07:19:30;27.60;;;12.98;;
9140;SDS011;46330;50.822;7.126;2022-12-15T07:21:58;24.27;;;12.45;;
9140;SDS011;46330;50.822;7.126;2022-12-15T07:24:26;24.95;;;12.98;;
9140;SDS011;46330;50.822;7.126;2022-12-15T07:26:54;31.30;;;13.93;;
9140;SDS011;46330;50.822;7.126;2022-12-15T07:29:22;32.55;;;14.43;;
9140;SDS011;46330;50.822;7.126;2022-12-15T07:31:50;30.15;;;13.15;;
9140;SDS011;46330;50.822;7.126;2022-12-15T07:34:18;34.83;;;14.20;;
9140;SDS011;46330;50.822;7.126;2022-12-15T07:36:48;32.83;;;14.27;;
9140;SDS011;46330;50.822;7.126;2022-12-15T07:39:18;29.27;;;13.90;;
9140;SDS011;46330;50.822;7.126;2022-12-15T07:41:46;30.98;;;14.88;;
9140;SDS011;46330;50.822;7.126;2022-12-15T07:44:14;24.48;;;12.48;;
9140;SDS011;46330;50.822;7.126;2022-12-15T07:46:42;28.92;;;14.52;;
9140;SDS011;46330;50.822;7.126;2022-12-15T07:49:12;28.48;;;13.32;;
9140;SDS011;46330;50.822;7.126;2022-12-15T07:51:39;33.42;;;15.23;;
9140;SDS011;46330;50.822;7.126;2022-12-15T07:54:09;30.92;;;15.05;;
9140;SDS011;46330;50.822;7.126;2022-12-15T07:56:38;31.77;;;14.63;;
9140;SDS011;46330;50.822;7.126;2022-12-15T07:59:06;30.75;;;14.82;;
9140;SDS011;46330;50.822;7.126;2022-12-15T08:01:35;31.40;;;14.60;;
9140;SDS011;46330;50.822;7.126;2022-12-15T08:04:03;34.72;;;15.43;;
9140;SDS011;46330;50.822;7.126;2022-12-15T08:06:31;35.72;;;15.25;;
9140;SDS011;46330;50.822;7.126;2022-12-15T08:08:59;28.83;;;14.25;;
9140;SDS011;46330;50.822;7.126;2022-12-15T08:11:28;35.85;;;15.13;;
9140;SDS011;46330;50.822;7.126;2022-12-15T08:14:00;35.28;;;17.20;;
9140;SDS011;46330;50.822;7.126;2022-12-15T08:16:33;32.22;;;15.45;;
9140;SDS011;46330;50.822;7.126;2022-12-15T08:19:02;145.88;;;33.53;;
9140;SDS011;46330;50.822;7.126;2022-12-15T08:21:30;60.15;;;20.33;;
9140;SDS011;46330;50.822;7.126;2022-12-15T08:23:59;72.85;;;24.48;;
9140;SDS011;46330;50.822;7.126;2022-12-15T08:26:28;68.82;;;21.05;;
9140;SDS011;46330;50.822;7.126;2022-12-15T08:28:59;112.53;;;31.50;;
9140;SDS011;46330;50.822;7.126;2022-12-15T08:31:49;145.10;;;35.85;;
9140;SDS011;46330;50.822;7.126;2022-12-15T08:34:17;58.63;;;22.63;;
9140;SDS011;46330;50.822;7.126;2022-12-15T08:36:45;74.72;;;28.02;;
9140;SDS011;46330;50.822;7.126;2022-12-15T08:39:13;87.32;;;31.30;;
9140;SDS011;46330;50.822;7.126;2022-12-15T08:41:43;30.08;;;14.32;;
9140;SDS011;46330;50.822;7.126;2022-12-15T08:44:10;48.33;;;23.42;;
9140;SDS011;46330;50.822;7.126;2022-12-15T08:46:38;29.40;;;16.08;;
9140;SDS011;46330;50.822;7.126;2022-12-15T08:49:06;22.98;;;13.25;;
9140;SDS011;46330;50.822;7.126;2022-12-15T08:51:34;36.08;;;17.52;;
9140;SDS011;46330;50.822;7.126;2022-12-15T08:54:02;22.63;;;13.25;;
9140;SDS011;46330;50.822;7.126;2022-12-15T08:56:30;30.13;;;15.25;;
9140;SDS011;46330;50.822;7.126;2022-12-15T08:59:00;25.17;;;13.77;;
9140;SDS011;46330;50.822;7.126;2022-12-15T09:01:29;13.65;;;8.10;;
9140;SDS011;46330;50.822;7.126;2022-12-15T09:03:58;26.42;;;13.38;;
9140;SDS011;46330;50.822;7.126;2022-12-15T09:06:27;29.55;;;14.93;;
9140;SDS011;46330;50.822;7.126;2022-12-15T09:08:58;21.00;;;10.80;;
9140;SDS011;46330;50.822;7.126;2022-12-15T09:11:28;29.92;;;15.63;;
9140;SDS011;46330;50.822;7.126;2022-12-15T09:13:56;18.48;;;11.13;;
9140;SDS011;46330;50.822;7.126;2022-12-15T09:16:27;16.83;;;9.43;;
9140;SDS011;46330;50.822;7.126;2022-12-15T09:18:55;27.35;;;14.30;;
9140;SDS011;46330;50.822;7.126;2022-12-15T09:21:25;23.42;;;13.80;;
9140;SDS011;46330;50.822;7.126;2022-12-15T09:23:56;23.63;;;12.50;;
9140;SDS011;46330;50.822;7.126;2022-12-15T09:26:26;31.05;;;15.73;;
9140;SDS011;46330;50.822;7.126;2022-12-15T09:28:55;44.75;;;22.10;;
9140;SDS011;46330;50.822;7.126;2022-12-15T09:31:24;35.05;;;18.27;;
9140;SDS011;46330;50.822;7.126;2022-12-15T09:33:56;26.63;;;16.00;;
9140;SDS011;46330;50.822;7.126;2022-12-15T09:36:26;16.45;;;9.55;;
9140;SDS011;46330;50.822;7.126;2022-12-15T09:38:55;30.55;;;15.77;;
9140;SDS011;46330;50.822;7.126;2022-12-15T09:41:24;30.25;;;15.68;;
9140;SDS011;46330;50.822;7.126;2022-12-15T09:43:55;32.08;;;14.93;;
9140;SDS011;46330;50.822;7.126;2022-12-15T09:46:29;25.08;;;12.73;;
9140;SDS011;46330;50.822;7.126;2022-12-15T09:49:12;26.13;;;14.85;;
9140;SDS011;46330;50.822;7.126;2022-12-15T09:51:49;26.10;;;13.57;;
9140;SDS011;46330;50.822;7.126;2022-12-15T09:54:19;20.80;;;11.68;;
9140;SDS011;46330;50.822;7.126;2022-12-15T09:56:50;32.70;;;14.80;;
9140;SDS011;46330;50.822;7.126;2022-12-15T09:59:25;31.83;;;15.32;;
9140;SDS011;46330;50.822;7.126;2022-12-15T10:02:02;30.65;;;16.20;;
9140;SDS011;46330;50.822;7.126;2022-12-15T10:04:46;29.52;;;15.35;;
9140;SDS011;46330;50.822;7.126;2022-12-15T10:07:23;38.55;;;16.65;;
9140;SDS011;46330;50.822;7.126;2022-12-15T10:09:56;32.30;;;15.65;;
9140;SDS011;46330;50.822;7.126;2022-12-15T10:12:24;24.20;;;13.43;;
9140;SDS011;46330;50.822;7.126;2022-12-15T10:15:01;33.47;;;16.13;;
9140;SDS011;46330;50.822;7.126;2022-12-15T10:17:39;28.92;;;14.57;;
9140;SDS011;46330;50.822;7.126;2022-12-15T10:20:16;26.15;;;14.23;;
9140;SDS011;46330;50.822;7.126;2022-12-15T10:22:46;28.05;;;14.27;;
9140;SDS011;46330;50.822;7.126;2022-12-15T10:25:16;33.25;;;16.08;;
9140;SDS011;46330;50.822;7.126;2022-12-15T10:33:24;21.65;;;12.60;;
9140;SDS011;46330;50.822;7.126;2022-12-15T10:35:57;26.73;;;12.25;;
9140;SDS011;46330;50.822;7.126;2022-12-15T10:38:26;27.48;;;15.02;;
9140;SDS011;46330;50.822;7.126;2022-12-15T10:41:01;33.40;;;16.75;;
9140;SDS011;46330;50.822;7.126;2022-12-15T10:43:31;31.95;;;16.15;;
9140;SDS011;46330;50.822;7.126;2022-12-15T10:46:03;37.88;;;17.50;;
9140;SDS011;46330;50.822;7.126;2022-12-15T10:48:37;34.45;;;15.98;;
9140;SDS011;46330;50.822;7.126;2022-12-15T10:54:03;38.28;;;18.55;;
9140;SDS011;46330;50.822;7.126;2022-12-15T10:56:34;34.88;;;17.65;;
9140;SDS011;46330;50.822;7.126;2022-12-15T10:59:27;22.05;;;11.77;;
9140;SDS011;46330;50.822;7.126;2022-12-15T11:02:00;34.83;;;17.88;;
9140;SDS011;46330;50.822;7.126;2022-12-15T11:04:53;15.95;;;10.32;;
9140;SDS011;46330;50.822;7.126;2022-12-15T11:07:23;28.83;;;15.68;;
9140;SDS011;46330;50.822;7.126;2022-12-15T11:09:57;33.80;;;15.25;;
9140;SDS011;46330;50.822;7.126;2022-12-15T11:12:28;28.17;;;15.13;;
9140;SDS011;46330;50.822;7.126;2022-12-15T11:18:10;18.42;;;10.43;;
9140;SDS011;46330;50.822;7.126;2022-12-15T11:20:46;22.17;;;12.27;;
9140;SDS011;46330;50.822;7.126;2022-12-15T11:23:24;24.77;;;14.15;;
9140;SDS011;46330;50.822;7.126;2022-12-15T11:26:00;29.73;;;15.40;;
9140;SDS011;46330;50.822;7.126;2022-12-15T11:28:33;32.97;;;17.02;;
9140;SDS011;46330;50.822;7.126;2022-12-15T11:31:11;36.15;;;19.80;;
9140;SDS011;46330;50.822;7.126;2022-12-15T11:33:45;33.42;;;16.42;;
9140;SDS011;46330;50.822;7.126;2022-12-15T11:36:18;30.95;;;15.77;;
9140;SDS011;46330;50.822;7.126;2022-12-15T11:38:59;29.48;;;15.55;;
9140;SDS011;46330;50.822;7.126;2022-12-15T11:41:36;26.58;;;14.43;;
9140;SDS011;46330;50.822;7.126;2022-12-15T11:44:14;31.75;;;16.30;;
9140;SDS011;46330;50.822;7.126;2022-12-15T11:46:52;20.85;;;11.75;;
9140;SDS011;46330;50.822;7.126;2022-12-15T11:49:35;24.13;;;12.82;;
9140;SDS011;46330;50.822;7.126;2022-12-15T11:52:16;31.98;;;18.17;;
9140;SDS011;46330;50.822;7.126;2022-12-15T11:55:01;26.65;;;14.50;;
9140;SDS011;46330;50.822;7.126;2022-12-15T11:57:45;28.67;;;15.88;;
9140;SDS011;46330;50.822;7.126;2022-12-15T12:00:24;29.23;;;13.98;;
9140;SDS011;46330;50.822;7.126;2022-12-15T12:02:57;27.33;;;15.88;;
9140;SDS011;46330;50.822;7.126;2022-12-15T12:05:43;32.35;;;16.38;;
9140;SDS011;46330;50.822;7.126;2022-12-15T12:08:36;35.42;;;18.75;;
9140;SDS011;46330;50.822;7.126;2022-12-15T12:11:19;31.88;;;17.08;;
9140;SDS011;46330;50.822;7.126;2022-12-15T12:14:02;30.77;;;15.85;;
9140;SDS011;46330;50.822;7.126;2022-12-15T12:16:39;22.38;;;12.70;;
9140;SDS011;46330;50.822;7.126;2022-12-15T12:19:15;29.25;;;15.05;;
9140;SDS011;46330;50.822;7.126;2022-12-15T12:21:48;26.23;;;14.10;;
9140;SDS011;46330;50.822;7.126;2022-12-15T12:24:18;30.88;;;15.77;;
9140;SDS011;46330;50.822;7.126;2022-12-15T12:26:52;34.78;;;16.23;;
9140;SDS011;46330;50.822;7.126;2022-12-15T12:29:27;26.88;;;14.63;;
9140;SDS011;46330;50.822;7.126;2022-12-15T12:32:00;29.60;;;15.75;;
9140;SDS011;46330;50.822;7.126;2022-12-15T12:34:34;29.80;;;15.80;;
9140;SDS011;46330;50.822;7.126;2022-12-15T12:37:18;30.88;;;15.85;;
9140;SDS011;46330;50.822;7.126;2022-12-15T12:39:51;26.23;;;13.98;;
9140;SDS011;46330;50.822;7.126;2022-12-15T12:42:27;27.77;;;15.55;;
9140;SDS011;46330;50.822;7.126;2022-12-15T12:45:01;36.10;;;16.13;;
9140;SDS011;46330;50.822;7.126;2022-12-15T12:47:30;29.52;;;16.38;;
9140;SDS011;46330;50.822;7.126;2022-12-15T12:50:02;29.40;;;15.75;;
9140;SDS011;46330;50.822;7.126;2022-12-15T12:52:33;29.90;;;16.13;;
9140;SDS011;46330;50.822;7.126;2022-12-15T12:55:23;32.10;;;16.77;;
9140;SDS011;46330;50.822;7.126;2022-12-15T12:57:54;26.52;;;13.88;;
9140;SDS011;46330;50.822;7.126;2022-12-15T13:00:24;28.17;;;14.98;;
9140;SDS011;46330;50.822;7.126;2022-12-15T13:05:44;31.33;;;16.10;;
9140;SDS011;46330;50.822;7.126;2022-12-15T13:08:44;28.33;;;15.43;;
9140;SDS011;46330;50.822;7.126;2022-12-15T13:14:47;29.95;;;14.82;;
9140;SDS011;46330;50.822;7.126;2022-12-15T13:17:26;32.25;;;16.33;;
9140;SDS011;46330;50.822;7.126;2022-12-15T13:22:49;33.33;;;17.55;;
9140;SDS011;46330;50.822;7.126;2022-12-15T13:25:25;30.92;;;15.75;;
9140;SDS011;46330;50.822;7.126;2022-12-15T13:34:01;33.00;;;16.52;;
9140;SDS011;46330;50.822;7.126;2022-12-15T13:36:42;35.22;;;17.60;;
9140;SDS011;46330;50.822;7.126;2022-12-15T13:39:32;29.75;;;16.33;;
9140;SDS011;46330;50.822;7.126;2022-12-15T13:42:29;27.05;;;14.65;;
9140;SDS011;46330;50.822;7.126;2022-12-15T13:48:31;26.73;;;14.38;;
9140;SDS011;46330;50.822;7.126;2022-12-15T13:51:04;28.70;;;14.80;;
9140;SDS011;46330;50.822;7.126;2022-12-15T13:53:46;28.77;;;15.10;;
9140;SDS011;46330;50.822;7.126;2022-12-15T13:56:20;25.98;;;14.95;;
9140;SDS011;46330;50.822;7.126;2022-12-15T13:58:53;30.02;;;16.38;;
9140;SDS011;46330;50.822;7.126;2022-12-15T14:01:26;30.50;;;15.27;;
9140;SDS011;46330;50.822;7.126;2022-12-15T14:04:02;31.67;;;16.48;;
9140;SDS011;46330;50.822;7.126;2022-12-15T14:06:36;30.70;;;16.38;;
9140;SDS011;46330;50.822;7.126;2022-12-15T14:09:12;31.27;;;16.58;;
9140;SDS011;46330;50.822;7.126;2022-12-15T14:11:42;32.03;;;16.63;;
9140;SDS011;46330;50.822;7.126;2022-12-15T14:14:20;27.23;;;15.20;;
9140;SDS011;46330;50.822;7.126;2022-12-15T14:16:54;29.00;;;15.75;;
9140;SDS011;46330;50.822;7.126;2022-12-15T14:19:26;29.90;;;16.10;;
9140;SDS011;46330;50.822;7.126;2022-12-15T14:22:16;28.65;;;15.35;;
9140;SDS011;46330;50.822;7.126;2022-12-15T14:24:58;29.67;;;15.07;;
9140;SDS011;46330;50.822;7.126;2022-12-15T14:27:28;29.45;;;15.05;;
9140;SDS011;46330;50.822;7.126;2022-12-15T14:30:08;29.88;;;15.95;;
9140;SDS011;46330;50.822;7.126;2022-12-15T14:32:48;32.85;;;16.95;;
9140;SDS011;46330;50.822;7.126;2022-12-15T14:35:23;29.55;;;15.70;;
9140;SDS011;46330;50.822;7.126;2022-12-15T14:37:56;29.50;;;15.18;;
9140;SDS011;46330;50.822;7.126;2022-12-15T14:40:26;33.83;;;16.40;;
9140;SDS011;46330;50.822;7.126;2022-12-15T14:42:55;35.08;;;16.55;;
9140;SDS011;46330;50.822;7.126;2022-12-15T14:45:25;30.75;;;15.52;;
9140;SDS011;46330;50.822;7.126;2022-12-15T14:47:55;35.63;;;17.50;;
9140;SDS011;46330;50.822;7.126;2022-12-15T14:50:47;30.55;;;16.33;;
9140;SDS011;46330;50.822;7.126;2022-12-15T14:53:16;30.60;;;16.58;;
9140;SDS011;46330;50.822;7.126;2022-12-15T14:55:47;33.88;;;17.17;;
9140;SDS011;46330;50.822;7.126;2022-12-15T14:58:28;30.30;;;16.25;;
9140;SDS011;46330;50.822;7.126;2022-12-15T15:01:00;37.55;;;17.50;;
9140;SDS011;46330;50.822;7.126;2022-12-15T15:03:33;39.40;;;19.88;;
9140;SDS011;46330;50.822;7.126;2022-12-15T15:06:05;37.17;;;18.45;;
9140;SDS011;46330;50.822;7.126;2022-12-15T15:08:44;32.88;;;17.85;;
9140;SDS011;46330;50.822;7.126;2022-12-15T15:11:18;34.40;;;17.48;;
9140;SDS011;46330;50.822;7.126;2022-12-15T15:13:52;32.65;;;17.70;;
9140;SDS011;46330;50.822;7.126;2022-12-15T15:16:21;38.53;;;17.23;;
9140;SDS011;46330;50.822;7.126;2022-12-15T15:18:50;33.83;;;17.42;;
9140;SDS011;46330;50.822;7.126;2022-12-15T15:21:23;33.65;;;16.40;;
9140;SDS011;46330;50.822;7.126;2022-12-15T15:23:56;33.38;;;17.25;;
9140;SDS011;46330;50.822;7.126;2022-12-15T15:26:25;36.08;;;16.90;;
9140;SDS011;46330;50.822;7.126;2022-12-15T15:28:53;33.75;;;17.42;;
9140;SDS011;46330;50.822;7.126;2022-12-15T15:31:25;36.92;;;18.10;;
9140;SDS011;46330;50.822;7.126;2022-12-15T15:34:06;37.38;;;17.80;;
9140;SDS011;46330;50.822;7.126;2022-12-15T15:36:35;37.95;;;18.15;;
9140;SDS011;46330;50.822;7.126;2022-12-15T15:39:08;32.92;;;17.90;;
9140;SDS011;46330;50.822;7.126;2022-12-15T15:41:39;37.63;;;17.60;;
9140;SDS011;46330;50.822;7.126;2022-12-15T15:44:09;49.17;;;23.35;;
9140;SDS011;46330;50.822;7.126;2022-12-15T15:46:42;48.03;;;23.25;;
9140;SDS011;46330;50.822;7.126;2022-12-15T15:49:15;43.70;;;21.83;;
9140;SDS011;46330;50.822;7.126;2022-12-15T15:51:47;36.03;;;18.17;;
9140;SDS011;46330;50.822;7.126;2022-12-15T15:54:16;39.13;;;17.60;;
9140;SDS011;46330;50.822;7.126;2022-12-15T15:56:48;41.67;;;19.50;;
9140;SDS011;46330;50.822;7.126;2022-12-15T15:59:17;38.28;;;18.33;;
9140;SDS011;46330;50.822;7.126;2022-12-15T16:01:48;35.50;;;19.27;;
9140;SDS011;46330;50.822;7.126;2022-12-15T16:04:19;43.97;;;21.38;;
9140;SDS011;46330;50.822;7.126;2022-12-15T16:06:49;42.88;;;21.55;;
9140;SDS011;46330;50.822;7.126;2022-12-15T16:09:17;40.10;;;19.80;;
9140;SDS011;46330;50.822;7.126;2022-12-15T16:11:45;40.58;;;20.10;;
9140;SDS011;46330;50.822;7.126;2022-12-15T16:14:14;42.00;;;19.95;;